Time;durP1;ratioP1;P1;durP2;ratioP2;P2;SDS_P1;SDS_P2;PMS_P1;PMS_P2;Temp;Humidity;BMP_temperature;BMP_pressure;BME280_temperature;BME280_humidity;BME280_pressure;Samples;Min_cycle;Max_cycle;Signal;HPM_P1;HPM_P2
2021/07/31 00:01:01;;;;;;;2.17;1.90;;;;;;;18.59;88.71;99977.91;5120459;28;20476;-71
2021/07/31 00:03:27;;;;;;;3.77;2.67;;;;;;;18.56;89.14;99975.13;5114294;28;20963;-71
2021/07/31 00:05:54;;;;;;;2.00;1.80;;;;;;;18.55;89.55;99968.84;5114314;28;20439;-71
2021/07/31 00:08:22;;;;;;;2.20;1.90;;;;;;;18.55;90.11;99968.84;5113950;28;20956;-71
2021/07/31 00:10:49;;;;;;;1.73;1.57;;;;;;;18.49;91.10;99969.50;5114096;28;20459;-71
2021/07/31 00:13:15;;;;;;;3.63;2.43;;;;;;;18.42;91.08;99959.25;5114175;28;20466;-71
2021/07/31 00:15:41;;;;;;;3.37;2.40;;;;;;;18.46;91.28;99962.84;5114039;28;20482;-71
2021/07/31 00:18:08;;;;;;;3.00;1.97;;;;;;;18.51;90.32;99957.03;5114112;28;20455;-71
2021/07/31 00:20:34;;;;;;;4.50;2.70;;;;;;;18.56;90.04;99953.16;5114051;28;20452;-70
2021/07/31 00:23:01;;;;;;;3.03;2.57;;;;;;;18.55;90.21;99943.34;5114033;28;20447;-71
2021/07/31 00:25:28;;;;;;;2.67;2.17;;;;;;;18.54;90.08;99945.28;5113983;28;20432;-71
2021/07/31 00:27:55;;;;;;;2.43;2.00;;;;;;;18.40;90.95;99943.13;5113913;28;20446;-71
2021/07/31 00:30:23;;;;;;;5.37;3.53;;;;;;;18.35;91.50;99932.50;5113523;28;20972;-71
2021/07/31 00:32:50;;;;;;;3.20;2.43;;;;;;;18.30;91.95;99934.78;5113848;28;20439;-71
2021/07/31 00:35:17;;;;;;;5.93;2.37;;;;;;;18.34;91.88;99927.38;5113799;28;20458;-71
2021/07/31 00:37:43;;;;;;;5.30;2.40;;;;;;;18.30;91.99;99932.03;5113625;28;20439;-71
2021/07/31 00:40:10;;;;;;;2.80;2.03;;;;;;;18.28;91.70;99926.91;5113662;28;20822;-71
2021/07/31 00:42:39;;;;;;;2.20;2.00;;;;;;;18.28;91.55;99921.44;5113789;28;20443;-71
2021/07/31 00:45:07;;;;;;;10.70;2.30;;;;;;;18.15;92.32;99915.38;5113676;28;20435;-71
2021/07/31 00:47:34;;;;;;;3.37;2.40;;;;;;;18.21;91.91;99915.84;5113526;28;20473;-71
2021/07/31 00:50:00;;;;;;;3.63;2.60;;;;;;;18.22;91.49;99911.16;5113586;28;20512;-71
2021/07/31 00:52:27;;;;;;;2.50;1.90;;;;;;;18.06;92.70;99914.84;5113606;28;20826;-71
2021/07/31 00:54:57;;;;;;;2.87;2.07;;;;;;;18.02;93.10;99918.69;5113618;28;20440;-71
2021/07/31 00:57:24;;;;;;;3.53;1.93;;;;;;;17.98;92.95;99921.38;5113549;28;20482;-70
2021/07/31 00:59:52;;;;;;;4.37;2.57;;;;;;;17.93;93.45;99926.34;5113257;28;20478;-70
2021/07/31 01:02:18;;;;;;;3.77;2.17;;;;;;;17.99;93.24;99930.38;5113242;28;20932;-70
2021/07/31 01:04:45;;;;;;;2.60;2.40;;;;;;;18.09;93.41;99933.28;5113573;28;20488;-70
2021/07/31 01:07:11;;;;;;;4.30;2.70;;;;;;;18.08;93.24;99931.69;5113529;28;20439;-70
2021/07/31 01:09:39;;;;;;;3.10;2.27;;;;;;;18.10;93.44;99934.06;5113410;28;20500;-70
2021/07/31 01:12:06;;;;;;;2.23;1.93;;;;;;;18.11;93.80;99933.72;5113497;28;20451;-70
2021/07/31 01:14:33;;;;;;;2.67;2.23;;;;;;;18.15;93.26;99934.56;5116805;28;20440;-71
2021/07/31 01:17:00;;;;;;;3.20;2.20;;;;;;;18.15;93.29;99931.81;5117566;28;20888;-70
2021/07/31 01:19:27;;;;;;;2.80;2.33;;;;;;;18.19;93.64;99931.06;5117559;28;20442;-70
2021/07/31 01:21:55;;;;;;;2.73;1.83;;;;;;;18.18;92.64;99934.97;5117395;28;20462;-70
2021/07/31 01:24:21;;;;;;;2.43;2.10;;;;;;;18.17;89.86;99936.91;5117404;28;20444;-70
2021/07/31 01:26:49;;;;;;;3.07;2.27;;;;;;;18.15;89.45;99934.56;5117318;28;20432;-70
2021/07/31 01:29:18;;;;;;;2.63;2.30;;;;;;;18.18;89.03;99934.97;5117325;28;20879;-70
2021/07/31 01:31:46;;;;;;;3.27;2.23;;;;;;;18.23;90.15;99935.44;5116906;28;20843;-71
2021/07/31 01:34:12;;;;;;;3.97;2.17;;;;;;;18.27;91.39;99936.28;5117270;28;20459;-70
2021/07/31 01:36:39;;;;;;;3.47;2.50;;;;;;;18.33;92.16;99939.53;5117169;28;20887;-70
2021/07/31 01:39:07;;;;;;;3.20;2.80;;;;;;;18.37;92.50;99937.59;5117175;28;20450;-70
2021/07/31 01:41:35;;;;;;;3.37;2.70;;;;;;;18.45;92.89;99931.06;5116991;28;20459;-70
2021/07/31 01:44:01;;;;;;;2.90;2.47;;;;;;;18.54;92.63;99933.53;5117055;28;20446;-70
2021/07/31 01:46:28;;;;;;;3.37;2.40;;;;;;;18.63;91.72;99934.06;5117016;28;20443;-70
2021/07/31 01:48:54;;;;;;;2.30;2.07;;;;;;;18.66;91.65;99927.84;5116951;28;20853;-71
2021/07/31 01:51:20;;;;;;;3.37;2.30;;;;;;;18.72;91.36;99939.28;5116840;28;20456;-71
2021/07/31 01:53:47;;;;;;;3.40;2.63;;;;;;;18.75;90.73;99933.84;5116837;28;20470;-71
2021/07/31 01:56:15;;;;;;;2.40;2.00;;;;;;;18.78;89.95;99941.34;5118199;28;20483;-71
2021/07/31 01:58:41;;;;;;;2.33;2.03;;;;;;;18.81;88.73;99953.53;5119709;27;20442;-71
2021/07/31 02:01:07;;;;;;;2.27;1.60;;;;;;;18.92;86.31;99959.94;5120438;28;20603;-71
2021/07/31 02:03:34;;;;;;;3.33;2.30;;;;;;;19.07;83.92;99969.94;5116346;28;20956;-71
2021/07/31 02:06:00;;;;;;;2.70;2.20;;;;;;;19.19;83.44;99973.63;5116611;28;20440;-71
2021/07/31 02:08:27;;;;;;;3.33;2.30;;;;;;;19.33;82.23;99979.28;5116604;28;20442;-71
2021/07/31 02:10:53;;;;;;;5.10;2.10;;;;;;;19.41;82.74;99986.44;5116446;28;20470;-71
2021/07/31 02:13:36;;;;;;;1.87;1.63;;;;;;;19.51;80.42;99987.72;5116489;28;20447;-71
2021/07/31 02:16:02;;;;;;;3.10;2.00;;;;;;;19.57;79.27;99988.97;5116413;28;20463;-71
2021/07/31 02:18:29;;;;;;;2.57;2.30;;;;;;;19.60;78.74;99991.75;5116421;28;20435;-71
2021/07/31 02:20:55;;;;;;;2.37;1.87;;;;;;;19.62;79.05;99994.94;5116277;28;20463;-71
2021/07/31 02:23:22;;;;;;;2.50;2.07;;;;;;;19.63;78.78;100004.75;5116012;28;20812;-71
2021/07/31 02:25:48;;;;;;;1.97;1.57;;;;;;;19.63;78.97;100001.22;5115895;28;20451;-71
2021/07/31 02:28:15;;;;;;;2.53;2.20;;;;;;;19.62;78.81;100008.69;5116180;28;20444;-71
2021/07/31 02:30:42;;;;;;;2.60;1.90;;;;;;;19.57;78.73;100008.97;5116044;28;20462;-71
2021/07/31 02:33:09;;;;;;;2.20;1.97;;;;;;;19.62;78.82;100013.38;5116090;28;20444;-71
2021/07/31 02:35:35;;;;;;;1.97;1.67;;;;;;;19.60;79.53;100015.66;5115849;28;20446;-70
2021/07/31 02:38:02;;;;;;;3.80;2.07;;;;;;;19.57;78.75;100008.97;5115931;28;20829;-70
2021/07/31 02:40:29;;;;;;;1.93;1.73;;;;;;;19.59;78.64;100003.91;5115639;28;21014;-70
2021/07/31 02:42:55;;;;;;;4.53;2.00;;;;;;;19.57;78.13;100005.44;5115937;28;20444;-70
2021/07/31 02:45:22;;;;;;;2.70;2.13;;;;;;;19.59;77.27;100012.13;5115875;28;20471;-70
2021/07/31 02:47:50;;;;;;;3.97;1.80;;;;;;;19.55;77.53;100008.56;5115896;28;20428;-70
2021/07/31 02:50:17;;;;;;;2.10;1.87;;;;;;;19.49;78.36;100012.03;5115705;28;20455;-70
2021/07/31 02:52:43;;;;;;;3.00;1.73;;;;;;;19.51;77.90;100012.44;5115458;28;20951;-71
2021/07/31 02:55:10;;;;;;;1.90;1.70;;;;;;;19.48;78.34;100018.66;5115201;28;20489;-71
2021/07/31 02:57:37;;;;;;;2.57;2.03;;;;;;;19.43;77.82;100011.56;5115217;28;21030;-70
2021/07/31 03:00:04;;;;;;;1.70;1.50;;;;;;;19.47;77.19;100015.13;5115093;28;20991;-71
2021/07/31 03:02:31;;;;;;;2.40;2.10;;;;;;;19.46;77.28;100021.00;5115562;28;20823;-72
2021/07/31 03:04:58;;;;;;;2.63;2.10;;;;;;;19.45;77.84;100014.72;5115431;28;20454;-75
2021/07/31 03:07:25;;;;;;;2.70;1.90;;;;;;;19.42;78.33;100019.00;5115479;28;20436;-76
2021/07/31 03:09:51;;;;;;;2.80;1.77;;;;;;;19.47;79.81;100017.09;5115347;28;20513;-74
2021/07/31 03:12:18;;;;;;;4.63;1.37;;;;;;;19.46;80.63;100015.50;5115322;28;20443;-73
2021/07/31 03:14:44;;;;;;;2.57;1.30;;;;;;;19.44;80.75;100023.34;5115280;28;20436;-73
2021/07/31 03:17:11;;;;;;;2.00;1.40;;;;;;;19.34;78.89;100019.28;5114848;28;21000;-73
2021/07/31 03:19:37;;;;;;;2.10;1.50;;;;;;;19.30;78.66;100018.47;5115117;28;20448;-72
2021/07/31 03:22:06;;;;;;;2.43;1.80;;;;;;;19.28;77.63;100021.59;5115138;28;20451;-72
2021/07/31 03:24:34;;;;;;;3.07;1.83;;;;;;;19.27;78.68;100025.50;5115129;28;20485;-72
2021/07/31 03:27:01;;;;;;;8.83;1.50;;;;;;;19.26;77.47;100018.44;5115088;28;20440;-72
2021/07/31 03:29:27;;;;;;;1.60;1.30;;;;;;;19.25;77.50;100027.81;5115021;28;20444;-72
2021/07/31 03:31:54;;;;;;;2.60;1.70;;;;;;;19.25;77.83;100032.53;5114928;28;20458;-72
2021/07/31 03:34:21;;;;;;;1.60;1.50;;;;;;;19.24;77.58;100030.94;5114884;28;20807;-72
2021/07/31 03:36:51;;;;;;;2.73;1.60;;;;;;;19.20;77.79;100027.38;5114124;28;20540;-72
2021/07/31 03:39:20;;;;;;;2.83;1.93;;;;;;;19.21;77.41;100026.19;5115127;28;20431;-72
2021/07/31 03:41:47;;;;;;;2.13;1.50;;;;;;;19.17;77.26;100028.91;5114698;28;20455;-72
2021/07/31 03:44:13;;;;;;;1.90;1.60;;;;;;;19.15;78.00;100023.78;5114779;28;20443;-72
2021/07/31 03:46:42;;;;;;;2.40;1.50;;;;;;;19.08;77.49;100040.19;5114650;28;20455;-72
2021/07/31 03:49:09;;;;;;;1.53;1.27;;;;;;;19.07;79.31;100035.81;5114627;28;20448;-72
2021/07/31 03:51:35;;;;;;;2.20;1.07;;;;;;;19.02;79.83;100036.16;5114463;28;20463;-72
2021/07/31 03:54:02;;;;;;;2.00;1.57;;;;;;;18.94;80.95;100033.69;5114549;28;20462;-72
2021/07/31 03:56:29;;;;;;;2.77;2.47;;;;;;;18.90;80.80;100039.94;5114442;28;20475;-72
2021/07/31 03:58:56;;;;;;;3.17;1.37;;;;;;;18.83;80.25;100039.81;5121175;28;20436;-72
2021/07/31 04:01:23;;;;;;;0.83;0.83;;;;;;;18.77;80.42;100052.28;5114122;28;20980;-72
2021/07/31 04:03:50;;;;;;;1.50;1.20;;;;;;;18.80;79.18;100054.28;5114389;28;20494;-72
2021/07/31 04:06:17;;;;;;;1.33;1.23;;;;;;;18.79;78.76;100044.47;5114266;28;20431;-72
2021/07/31 04:08:43;;;;;;;1.30;1.20;;;;;;;18.79;78.86;100055.44;5114213;28;20443;-72
2021/07/31 04:11:10;;;;;;;1.43;1.23;;;;;;;18.79;80.44;100049.94;5114138;28;20463;-72
2021/07/31 04:13:38;;;;;;;1.30;1.13;;;;;;;18.80;81.38;100057.00;5114149;28;20447;-72
2021/07/31 04:16:07;;;;;;;1.00;0.90;;;;;;;18.77;82.53;100063.25;5114110;28;20435;-72
2021/07/31 04:18:34;;;;;;;1.93;1.47;;;;;;;18.72;82.00;100057.28;5114032;28;20471;-72
2021/07/31 04:21:00;;;;;;;1.10;1.00;;;;;;;18.64;81.68;100059.91;5113980;28;20455;-72
2021/07/31 04:23:27;;;;;;;1.70;1.37;;;;;;;18.59;80.59;100067.63;5113779;28;20464;-72
2021/07/31 04:25:53;;;;;;;1.57;1.47;;;;;;;18.53;80.92;100077.34;5113914;28;20450;-72
2021/07/31 04:28:20;;;;;;;1.73;1.50;;;;;;;18.49;78.80;100080.00;5113647;28;20814;-72
2021/07/31 04:30:47;;;;;;;1.23;0.97;;;;;;;18.45;80.06;100084.66;5113839;28;20460;-71
2021/07/31 04:33:14;;;;;;;1.20;1.10;;;;;;;18.49;81.48;100082.75;5113896;28;20452;-73
2021/07/31 04:35:41;;;;;;;4.80;0.90;;;;;;;18.52;79.70;100082.03;5113907;28;20471;-71
2021/07/31 04:38:07;;;;;;;1.33;1.07;;;;;;;18.56;79.62;100076.59;5113501;28;20486;-72
2021/07/31 04:40:34;;;;;;;1.00;0.80;;;;;;;18.63;81.85;100087.69;5113387;28;20466;-72
2021/07/31 04:43:01;;;;;;;1.80;1.03;;;;;;;18.61;80.90;100084.53;5113787;28;20446;-71
2021/07/31 04:45:27;;;;;;;1.97;1.20;;;;;;;18.60;79.55;100074.72;5113767;28;20525;-72
2021/07/31 04:47:55;;;;;;;2.90;0.90;;;;;;;18.62;79.45;100084.16;5113644;28;20431;-72
2021/07/31 04:50:21;;;;;;;1.10;1.00;;;;;;;18.65;78.78;100082.63;5113639;28;20467;-71
2021/07/31 04:52:48;;;;;;;1.47;0.90;;;;;;;18.75;78.59;100092.22;5113679;28;20450;-70
2021/07/31 04:55:14;;;;;;;1.60;1.30;;;;;;;18.79;80.13;100082.88;5113652;28;20435;-70
2021/07/31 04:57:40;;;;;;;1.27;1.17;;;;;;;18.82;78.36;100082.16;5113527;28;20529;-70
2021/07/31 05:00:08;;;;;;;1.40;1.10;;;;;;;18.87;77.35;100086.53;5112967;28;20486;-70
2021/07/31 05:02:34;;;;;;;1.30;1.20;;;;;;;18.94;76.94;100092.09;5113540;28;20439;-70
2021/07/31 05:05:02;;;;;;;1.37;1.10;;;;;;;18.97;77.88;100087.84;5113565;28;20443;-70
2021/07/31 05:07:29;;;;;;;1.33;1.00;;;;;;;18.98;77.29;100097.66;5113261;28;20935;-70
2021/07/31 05:09:55;;;;;;;1.63;1.27;;;;;;;18.99;77.54;100096.50;5113415;28;20467;-70
2021/07/31 05:12:21;;;;;;;1.90;1.27;;;;;;;19.03;78.47;100092.63;5113606;28;20496;-71
2021/07/31 05:14:50;;;;;;;1.00;0.90;;;;;;;19.05;78.42;100103.25;5113452;28;20436;-70
2021/07/31 05:17:19;;;;;;;0.70;0.70;;;;;;;19.09;77.46;100095.88;5113425;28;20577;-71
2021/07/31 05:19:45;;;;;;;0.90;0.90;;;;;;;19.08;77.50;100100.56;5113284;28;20479;-70
2021/07/31 05:22:13;;;;;;;1.33;0.83;;;;;;;19.11;78.68;100104.50;5113072;28;20854;-70
2021/07/31 05:24:40;;;;;;;0.90;0.70;;;;;;;19.14;78.38;100104.56;5113388;28;20452;-70
2021/07/31 05:27:06;;;;;;;0.60;0.60;;;;;;;19.19;77.68;100108.94;5113316;28;20443;-71
2021/07/31 05:29:33;;;;;;;1.57;1.20;;;;;;;19.24;77.30;100110.59;5113281;28;20443;-71
2021/07/31 05:31:59;;;;;;;0.97;0.73;;;;;;;19.26;77.92;100105.53;5113358;28;20519;-71
2021/07/31 05:34:26;;;;;;;1.10;0.80;;;;;;;19.31;76.25;100111.47;5113310;28;20439;-70
2021/07/31 05:36:53;;;;;;;1.00;0.90;;;;;;;19.34;77.71;100107.19;5113066;28;20439;-71
2021/07/31 05:39:21;;;;;;;1.17;1.07;;;;;;;19.40;76.49;100112.00;5113301;28;20439;-71
2021/07/31 05:41:47;;;;;;;0.63;0.57;;;;;;;19.44;76.32;100114.00;5113136;28;20464;-71
2021/07/31 05:44:14;;;;;;;1.43;0.80;;;;;;;19.50;76.56;100113.28;5112924;28;20820;-71
2021/07/31 05:46:40;;;;;;;1.43;1.10;;;;;;;19.51;79.83;100114.09;5113093;28;20443;-71
2021/07/31 05:49:06;;;;;;;1.47;1.07;;;;;;;19.54;77.69;100113.34;5113134;28;20442;-71
2021/07/31 05:51:33;;;;;;;1.10;0.70;;;;;;;19.63;75.13;100114.66;5113088;28;20828;-71
2021/07/31 05:53:59;;;;;;;2.00;1.10;;;;;;;19.71;73.01;100121.06;5113133;28;20439;-71
2021/07/31 05:56:27;;;;;;;0.73;0.70;;;;;;;19.77;71.85;100114.03;5117691;28;20424;-71
2021/07/31 05:58:53;;;;;;;0.83;0.83;;;;;;;19.79;71.68;100108.97;5115082;28;20483;-71
2021/07/31 06:01:20;;;;;;;1.30;1.00;;;;;;;19.83;71.63;100112.56;5116751;28;20482;-71
2021/07/31 06:03:47;;;;;;;0.80;0.50;;;;;;;19.93;71.76;100100.09;5116691;28;20439;-71
2021/07/31 06:06:14;;;;;;;0.70;0.60;;;;;;;20.01;72.17;100103.69;5116788;28;20447;-71
2021/07/31 06:08:40;;;;;;;3.90;0.90;;;;;;;20.10;69.28;100115.22;5116748;28;20439;-70
2021/07/31 06:11:07;;;;;;;1.93;0.63;;;;;;;20.10;69.92;100115.22;5116455;28;20872;-70
2021/07/31 06:13:35;;;;;;;0.87;0.80;;;;;;;20.14;69.35;100113.25;5116302;28;20947;-70
2021/07/31 06:16:01;;;;;;;3.70;0.87;;;;;;;20.23;69.11;100110.22;5116223;28;20442;-70
2021/07/31 06:18:28;;;;;;;0.70;0.60;;;;;;;20.27;69.64;100111.03;5116324;28;20490;-70
2021/07/31 06:20:54;;;;;;;1.60;0.80;;;;;;;20.24;68.87;100109.84;5116260;28;20467;-70
2021/07/31 06:23:21;;;;;;;0.80;0.60;;;;;;;20.36;69.80;100112.31;5116291;28;20489;-70
2021/07/31 06:25:47;;;;;;;0.80;0.70;;;;;;;20.50;68.58;100110.91;5116276;28;20492;-70
2021/07/31 06:28:14;;;;;;;0.80;0.57;;;;;;;20.55;69.81;100107.81;5116273;28;20488;-70
2021/07/31 06:30:44;;;;;;;0.70;0.70;;;;;;;20.58;68.66;100107.81;5116085;28;20474;-70
2021/07/31 06:33:11;;;;;;;1.57;1.00;;;;;;;20.66;67.98;100111.41;5115976;27;20971;-70
2021/07/31 06:35:38;;;;;;;0.90;0.60;;;;;;;20.69;66.66;100112.63;5115787;28;20971;-72
2021/07/31 06:38:04;;;;;;;0.60;0.60;;;;;;;20.71;66.25;100105.56;5115982;28;20487;-72
2021/07/31 06:40:31;;;;;;;0.70;0.57;;;;;;;20.77;65.78;100106.00;5115906;28;20841;-72
2021/07/31 06:42:57;;;;;;;0.73;0.50;;;;;;;20.79;64.94;100107.19;5115599;28;20963;-72
2021/07/31 06:45:23;;;;;;;7.40;1.00;;;;;;;20.84;66.78;100104.09;5115866;28;20435;-72
2021/07/31 06:47:51;;;;;;;1.07;0.80;;;;;;;20.86;62.95;100107.25;5115518;28;20794;-72
2021/07/31 06:50:18;;;;;;;3.10;0.73;;;;;;;20.90;62.22;100108.06;5115808;28;20456;-72
2021/07/31 06:52:44;;;;;;;2.03;0.60;;;;;;;20.92;63.15;100111.22;5115538;28;20432;-72
2021/07/31 06:55:11;;;;;;;1.30;0.67;;;;;;;20.95;63.40;100101.41;5115693;28;20444;-72
2021/07/31 06:57:38;;;;;;;1.27;0.70;;;;;;;20.94;64.68;100110.84;5115688;28;20502;-72
2021/07/31 07:00:06;;;;;;;1.10;0.73;;;;;;;21.05;63.41;100103.44;5115308;28;20467;-72
2021/07/31 07:02:32;;;;;;;0.97;0.80;;;;;;;21.16;62.42;100109.81;5115244;28;20435;-72
2021/07/31 07:05:01;;;;;;;0.70;0.60;;;;;;;21.18;62.84;100106.69;5115466;28;20493;-72
2021/07/31 07:07:28;;;;;;;3.87;0.70;;;;;;;21.24;62.85;100102.38;5115433;28;20436;-72
2021/07/31 07:09:54;;;;;;;1.73;0.80;;;;;;;21.27;61.42;100101.59;5114808;28;20463;-72
2021/07/31 07:12:20;;;;;;;1.13;0.80;;;;;;;21.29;61.61;100101.22;5114513;28;20446;-72
2021/07/31 07:14:47;;;;;;;0.77;0.77;;;;;;;21.35;59.19;100088.69;5115193;28;20439;-72
2021/07/31 07:17:13;;;;;;;1.77;0.93;;;;;;;21.37;60.33;100092.63;5115165;28;20440;-72
2021/07/31 07:19:40;;;;;;;1.53;0.60;;;;;;;21.50;60.96;100086.78;5115143;28;20446;-72
2021/07/31 07:22:07;;;;;;;1.00;0.60;;;;;;;21.56;60.53;100087.97;5115178;28;20446;-72
2021/07/31 07:24:35;;;;;;;2.50;0.80;;;;;;;21.66;58.95;100090.00;5115107;28;20440;-72
2021/07/31 07:27:01;;;;;;;0.73;0.73;;;;;;;21.71;60.10;100089.63;5115164;28;20479;-72
2021/07/31 07:29:27;;;;;;;1.17;0.80;;;;;;;21.67;61.08;100088.81;5114972;28;20444;-72
2021/07/31 07:31:54;;;;;;;0.70;0.60;;;;;;;21.64;59.42;100087.63;5114893;28;20459;-72
2021/07/31 07:34:20;;;;;;;1.27;0.70;;;;;;;21.71;60.33;100084.13;5114906;28;20858;-72
2021/07/31 07:36:47;;;;;;;0.53;0.50;;;;;;;21.77;59.90;100071.53;5114907;28;20436;-72
2021/07/31 07:39:14;;;;;;;1.13;0.53;;;;;;;21.83;59.79;100075.50;5114734;28;20503;-72
2021/07/31 07:41:41;;;;;;;2.20;0.50;;;;;;;21.97;58.20;100073.94;5114357;28;20451;-73
2021/07/31 07:44:07;;;;;;;1.33;1.23;;;;;;;22.11;57.29;100076.72;5114750;28;20435;-73
2021/07/31 07:46:34;;;;;;;1.33;0.80;;;;;;;22.15;56.74;100070.06;5114760;28;20443;-73
2021/07/31 07:49:00;;;;;;;0.80;0.80;;;;;;;22.23;57.54;100083.88;5114632;28;20448;-73
2021/07/31 07:51:26;;;;;;;0.60;0.60;;;;;;;22.29;58.12;100074.03;5114547;28;20494;-72
2021/07/31 07:53:54;;;;;;;0.83;0.57;;;;;;;22.39;55.88;100074.00;5114552;28;20455;-73
2021/07/31 07:56:21;;;;;;;0.90;0.50;;;;;;;22.44;55.09;100072.03;5116216;28;20543;-74
2021/07/31 07:58:53;;;;;;;0.80;0.80;;;;;;;22.42;54.12;100064.94;5113919;28;20899;-73
2021/07/31 08:01:19;;;;;;;1.47;0.60;;;;;;;22.40;56.10;100075.59;5114463;28;20518;-74
2021/07/31 08:03:46;;;;;;;0.93;0.63;;;;;;;22.21;54.74;100084.25;5114372;28;20440;-73
2021/07/31 08:06:16;;;;;;;1.07;0.70;;;;;;;22.03;53.72;100088.91;5114305;28;20582;-71
2021/07/31 08:08:42;;;;;;;3.27;0.60;;;;;;;21.95;53.35;100087.31;5114376;28;20434;-71
2021/07/31 08:11:09;;;;;;;0.93;0.57;;;;;;;22.03;53.00;100083.41;5114197;28;20463;-71
2021/07/31 08:13:37;;;;;;;2.90;0.77;;;;;;;22.09;54.34;100092.88;5114307;27;20435;-71
2021/07/31 08:16:03;;;;;;;2.67;0.50;;;;;;;22.10;53.01;100088.94;5114201;28;20488;-72
2021/07/31 08:18:30;;;;;;;1.40;0.70;;;;;;;22.19;52.53;100094.13;5114041;28;20475;-73
2021/07/31 08:20:56;;;;;;;0.60;0.50;;;;;;;22.32;51.92;100095.31;5114023;28;20471;-71
2021/07/31 08:23:23;;;;;;;1.97;0.60;;;;;;;22.47;54.06;100098.88;5113452;28;20844;-72
2021/07/31 08:25:49;;;;;;;0.80;0.57;;;;;;;22.60;51.54;100091.78;5113977;28;20435;-72
2021/07/31 08:28:15;;;;;;;0.70;0.60;;;;;;;22.66;51.83;100082.69;5113976;28;20443;-72
2021/07/31 08:30:43;;;;;;;0.67;0.50;;;;;;;22.70;52.40;100096.50;5113864;28;20464;-72
2021/07/31 08:33:09;;;;;;;0.70;0.60;;;;;;;22.77;52.72;100092.94;5113863;28;20444;-72
2021/07/31 08:35:36;;;;;;;1.23;0.73;;;;;;;22.82;52.37;100101.63;5113830;28;20423;-72
2021/07/31 08:38:02;;;;;;;0.67;0.50;;;;;;;22.83;51.28;100100.44;5113664;28;20490;-72
2021/07/31 08:40:29;;;;;;;1.47;0.87;;;;;;;22.74;51.85;100096.50;5113809;28;20463;-71
2021/07/31 08:42:55;;;;;;;0.50;0.40;;;;;;;22.70;52.70;100099.25;5113728;28;20446;-71
2021/07/31 08:45:22;;;;;;;1.03;0.63;;;;;;;22.66;51.67;100098.47;5113686;28;20491;-72
2021/07/31 08:47:51;;;;;;;0.80;0.70;;;;;;;22.77;51.41;100095.72;5113686;28;20439;-72
2021/07/31 08:50:22;;;;;;;0.70;0.53;;;;;;;22.98;51.85;100104.00;5113552;28;20513;-71
2021/07/31 08:52:51;;;;;;;1.00;0.67;;;;;;;23.17;51.33;100094.50;5113746;28;20431;-72
2021/07/31 08:55:17;;;;;;;0.90;0.53;;;;;;;23.35;51.78;100100.75;5113710;28;20455;-72
2021/07/31 08:57:44;;;;;;;1.07;0.70;;;;;;;23.47;51.21;100096.00;5113469;28;20435;-70
2021/07/31 09:00:11;;;;;;;4.40;0.70;;;;;;;23.54;49.83;100090.41;5113060;28;21064;-71
2021/07/31 09:02:42;;;;;;;2.93;0.67;;;;;;;23.45;50.11;100095.59;5113432;28;20817;-71
2021/07/31 09:05:12;;;;;;;1.50;0.80;;;;;;;23.36;50.38;100098.78;5113446;28;20432;-71
2021/07/31 09:07:39;;;;;;;1.30;0.80;;;;;;;23.30;49.75;100092.09;5113432;28;20446;-71
2021/07/31 09:10:23;;;;;;;0.60;0.50;;;;;;;23.23;51.64;100097.63;5113415;28;20498;-71
2021/07/31 09:12:53;;;;;;;0.53;0.53;;;;;;;23.21;50.61;100092.50;5113519;28;20636;-71
2021/07/31 09:15:36;;;;;;;0.80;0.63;;;;;;;23.15;52.02;100107.91;5111827;28;20443;-71
2021/07/31 09:18:30;;;;;;;1.13;0.60;;;;;;;22.99;52.10;100104.78;5111970;28;20436;-71
2021/07/31 09:21:00;;;;;;;1.00;0.83;;;;;;;22.95;53.39;100099.28;5107632;28;20992;-71
2021/07/31 09:23:41;;;;;;;5.00;1.00;;;;;;;22.98;52.67;100098.47;5110213;28;20451;-71
2021/07/31 09:26:08;;;;;;;0.60;0.60;;;;;;;23.08;52.29;100099.66;5110507;28;20479;-70
2021/07/31 09:28:39;;;;;;;1.00;0.70;;;;;;;23.09;52.01;100102.00;5112015;28;20440;-71
2021/07/31 09:31:05;;;;;;;1.97;1.13;;;;;;;23.14;51.32;100098.81;5111789;28;20463;-71
2021/07/31 09:33:32;;;;;;;4.90;0.87;;;;;;;23.29;52.27;100085.78;5113688;28;20941;-71
2021/07/31 09:36:04;;;;;;;1.60;1.50;;;;;;;23.44;51.92;100092.03;5117864;28;20447;-72
2021/07/31 09:38:38;;;;;;;0.97;0.80;;;;;;;23.35;50.93;100097.19;5116879;28;20487;-72
2021/07/31 09:41:32;;;;;;;0.93;0.70;;;;;;;23.16;51.47;100104.75;5109654;28;20461;-71
2021/07/31 09:44:07;;;;;;;1.47;0.93;;;;;;;23.08;52.27;100088.59;5108808;28;20440;-72
2021/07/31 09:46:35;;;;;;;0.70;0.60;;;;;;;23.20;51.51;100090.13;5096634;28;20518;-72
2021/07/31 09:49:03;;;;;;;3.50;1.40;;;;;;;23.42;51.93;100089.69;5096451;28;20949;-72
2021/07/31 09:51:35;;;;;;;1.47;0.70;;;;;;;23.47;52.48;100085.72;5100062;28;20468;-72
2021/07/31 09:54:03;;;;;;;1.20;0.87;;;;;;;23.57;52.69;100087.63;5099420;28;20897;-72
2021/07/31 09:56:31;;;;;;;1.37;0.77;;;;;;;23.67;51.91;100083.28;5096412;28;20437;-72
2021/07/31 09:58:59;;;;;;;0.90;0.67;;;;;;;23.73;51.27;100081.69;5096244;28;20516;-73
2021/07/31 10:01:28;;;;;;;2.93;0.70;;;;;;;23.66;51.52;100084.47;5096490;28;20566;-72
2021/07/31 10:03:55;;;;;;;3.17;0.70;;;;;;;23.45;50.84;100095.59;5096391;28;20451;-72
2021/07/31 10:06:22;;;;;;;1.87;0.57;;;;;;;23.34;50.77;100084.56;5096297;28;20444;-72
2021/07/31 10:08:51;;;;;;;1.03;0.90;;;;;;;23.27;50.65;100090.91;5096287;28;20448;-72
2021/07/31 10:11:18;;;;;;;1.00;0.90;;;;;;;23.25;50.87;100090.53;5096080;28;20460;-72
2021/07/31 10:13:45;;;;;;;1.73;1.00;;;;;;;23.34;51.19;100093.66;5096164;28;20447;-72
2021/07/31 10:16:12;;;;;;;1.33;0.60;;;;;;;23.34;51.41;100099.19;5096072;28;20448;-72
2021/07/31 10:18:38;;;;;;;1.00;0.87;;;;;;;23.20;49.95;100103.94;5096065;28;20570;-72
2021/07/31 10:21:06;;;;;;;1.37;0.50;;;;;;;23.12;50.23;100097.66;5095931;28;20464;-73
2021/07/31 10:24:00;;;;;;;0.70;0.67;;;;;;;23.18;50.67;100107.09;5096030;28;20444;-72
2021/07/31 10:26:28;;;;;;;1.17;0.87;;;;;;;23.31;50.82;100099.19;5111887;28;20963;-72
2021/07/31 10:28:54;;;;;;;2.07;0.70;;;;;;;23.38;51.21;100101.94;5115830;28;20474;-72
2021/07/31 10:31:28;;;;;;;2.30;0.67;;;;;;;23.41;49.51;100107.44;5115865;28;20455;-72
2021/07/31 10:33:55;;;;;;;1.57;0.77;;;;;;;23.44;50.72;100108.63;5116093;28;20471;-72
2021/07/31 10:36:29;;;;;;;0.60;0.53;;;;;;;23.60;50.52;100105.41;5116148;28;20443;-72
2021/07/31 10:38:56;;;;;;;0.80;0.67;;;;;;;23.60;49.20;100105.41;5115959;28;20475;-72
2021/07/31 10:41:55;;;;;;;0.70;0.60;;;;;;;23.58;50.10;100110.53;5115938;28;20830;-72
2021/07/31 10:44:22;;;;;;;1.33;0.70;;;;;;;23.76;49.70;100099.44;5115995;28;20511;-72
2021/07/31 10:46:48;;;;;;;0.60;0.50;;;;;;;23.90;50.49;100111.19;5115741;28;20439;-72
2021/07/31 10:49:35;;;;;;;0.67;0.57;;;;;;;24.10;48.31;100110.72;5115858;28;20806;-72
2021/07/31 10:52:01;;;;;;;6.43;0.70;;;;;;;24.17;48.80;100107.88;5115404;28;20455;-72
2021/07/31 10:55:00;;;;;;;0.77;0.63;;;;;;;24.26;47.37;100118.50;5115743;28;20447;-72
2021/07/31 10:58:00;;;;;;;0.60;0.60;;;;;;;24.28;48.12;100110.59;5115800;28;20478;-72
2021/07/31 11:00:29;;;;;;;0.60;0.60;;;;;;;24.25;46.69;100103.88;5115179;28;20498;-72
2021/07/31 11:02:58;;;;;;;1.30;0.60;;;;;;;24.07;47.18;100105.97;5115597;28;20442;-72
2021/07/31 11:05:25;;;;;;;0.50;0.50;;;;;;;24.20;48.50;100106.28;5115615;28;20538;-71
2021/07/31 11:08:04;;;;;;;1.20;0.57;;;;;;;24.20;47.00;100098.00;5115465;28;20435;-72
2021/07/31 11:10:44;;;;;;;3.80;0.77;;;;;;;24.24;46.82;100107.84;5115421;28;20458;-72
2021/07/31 11:13:11;;;;;;;1.77;0.70;;;;;;;24.23;47.75;100111.03;5115069;28;20923;-71
2021/07/31 11:16:19;;;;;;;0.87;0.63;;;;;;;24.40;48.75;100121.22;5114672;28;20913;-71
2021/07/31 11:18:48;;;;;;;0.57;0.43;;;;;;;24.54;46.80;100121.13;5113744;28;20519;-71
2021/07/31 11:21:16;;;;;;;0.70;0.50;;;;;;;24.35;46.53;100122.41;5097186;28;20539;-71
2021/07/31 11:23:44;;;;;;;1.10;0.70;;;;;;;24.33;47.08;100124.00;5094825;28;20460;-71
2021/07/31 11:26:11;;;;;;;2.10;0.70;;;;;;;24.06;47.05;100126.53;5094638;28;20440;-71
2021/07/31 11:28:38;;;;;;;0.60;0.50;;;;;;;24.06;47.00;100129.31;5094802;28;20436;-72
2021/07/31 11:31:17;;;;;;;1.17;0.97;;;;;;;24.40;46.26;100119.25;5094640;28;20456;-71